createdAt,value
2018-07-31T00:02:41.442Z,3.6
2018-07-31T00:05:41.783Z,3.3
2018-07-31T00:08:41.744Z,3
2018-07-31T00:11:41.463Z,2.9
2018-07-31T00:14:41.664Z,2.9
2018-07-31T00:17:41.640Z,3.1
2018-07-31T00:20:41.463Z,3.4
2018-07-31T00:23:41.686Z,3.1
2018-07-31T00:26:41.686Z,3.2
2018-07-31T00:29:41.505Z,2.9
2018-07-31T00:32:41.568Z,2.7
2018-07-31T00:35:41.674Z,2.8
2018-07-31T00:38:41.446Z,2.8
2018-07-31T00:41:41.613Z,2.8
2018-07-31T00:44:41.866Z,2.7
2018-07-31T00:47:41.453Z,2.7
2018-07-31T00:50:41.615Z,2.7
2018-07-31T00:53:41.913Z,2.7
2018-07-31T00:56:41.492Z,2.6
2018-07-31T00:59:41.742Z,2.6
2018-07-31T01:02:41.762Z,2.6
2018-07-31T01:05:41.456Z,2.5
2018-07-31T01:08:41.517Z,2.7
2018-07-31T01:11:41.612Z,2.7
2018-07-31T01:14:41.562Z,2.9
2018-07-31T01:17:41.630Z,2.9
2018-07-31T01:20:41.779Z,2.8
2018-07-31T01:23:41.447Z,2.7
2018-07-31T01:26:41.675Z,3.5
2018-07-31T01:29:41.521Z,3.1
2018-07-31T01:32:41.534Z,2.7
2018-07-31T01:35:41.529Z,2.7
2018-07-31T01:38:41.566Z,2.7
2018-07-31T01:41:41.461Z,2.6
2018-07-31T01:44:41.641Z,2.6
2018-07-31T01:47:41.614Z,2.6
2018-07-31T01:50:41.430Z,2.5
2018-07-31T01:53:41.560Z,2.7
2018-07-31T01:56:41.628Z,2.6
2018-07-31T01:59:42.510Z,2.6
2018-07-31T02:02:41.761Z,2.6
2018-07-31T02:05:41.660Z,2.6
2018-07-31T02:08:41.510Z,2.5
2018-07-31T02:11:41.596Z,2.6
2018-07-31T02:14:41.614Z,2.6
2018-07-31T02:17:41.566Z,2.7
2018-07-31T02:20:41.694Z,2.6
2018-07-31T02:23:41.515Z,2.5
2018-07-31T02:26:41.455Z,2.5
2018-07-31T02:29:41.707Z,3
2018-07-31T02:32:41.588Z,2.7
2018-07-31T02:35:41.425Z,2.6
2018-07-31T02:38:41.582Z,2.8
2018-07-31T02:41:41.521Z,3.1
2018-07-31T02:44:41.545Z,3
2018-07-31T02:47:41.946Z,2.8
2018-07-31T02:50:41.628Z,2.9
2018-07-31T02:53:41.478Z,2.7
2018-07-31T02:56:41.820Z,2.6
2018-07-31T02:59:41.617Z,2.6
2018-07-31T03:02:41.499Z,2.6
2018-07-31T03:05:41.648Z,2.5
2018-07-31T03:08:41.571Z,2.5
2018-07-31T03:11:41.453Z,2.5
2018-07-31T03:14:41.604Z,2.6
2018-07-31T03:17:41.846Z,2.5
2018-07-31T03:20:41.562Z,2.5
2018-07-31T03:23:41.668Z,2.7
2018-07-31T03:26:41.496Z,2.6
2018-07-31T03:29:41.354Z,2.6
2018-07-31T03:32:41.658Z,2.6
2018-07-31T03:35:41.630Z,2.5
2018-07-31T03:38:41.457Z,2.5
2018-07-31T03:41:41.478Z,2.7
2018-07-31T03:44:41.473Z,2.6
2018-07-31T03:47:41.400Z,2.5
2018-07-31T03:50:41.697Z,2.5
2018-07-31T03:53:41.481Z,2.7
2018-07-31T03:56:41.690Z,2.5
2018-07-31T03:59:41.594Z,2.5
2018-07-31T04:02:41.653Z,2.5
2018-07-31T04:05:41.541Z,2.5
2018-07-31T04:08:41.429Z,4.8
2018-07-31T04:11:41.503Z,5.6
2018-07-31T04:14:41.579Z,6.3
2018-07-31T04:17:41.540Z,6.8
2018-07-31T04:20:41.445Z,6.8
2018-07-31T04:23:41.679Z,6.5
2018-07-31T04:26:41.614Z,6.8
2018-07-31T04:29:41.430Z,6.7
2018-07-31T04:32:41.426Z,7.1
2018-07-31T04:35:41.613Z,7.8
2018-07-31T04:38:41.453Z,7.8
2018-07-31T04:41:41.602Z,7.2
2018-07-31T04:44:41.555Z,6.9
2018-07-31T04:47:41.447Z,6.8
2018-07-31T04:50:41.468Z,7
2018-07-31T04:53:41.598Z,7.3
2018-07-31T04:56:41.727Z,7.2
2018-07-31T04:59:41.614Z,7.2
2018-07-31T05:02:41.633Z,7.6
2018-07-31T05:05:41.406Z,7.4
2018-07-31T05:08:41.549Z,7.5
2018-07-31T05:11:41.422Z,7.6
2018-07-31T05:14:41.324Z,7.7
2018-07-31T05:17:41.945Z,7.2
2018-07-31T05:20:41.613Z,7
2018-07-31T05:23:41.665Z,7.6
2018-07-31T05:26:41.517Z,6.9
2018-07-31T05:29:41.588Z,6.9
2018-07-31T05:32:42.738Z,7.3
2018-07-31T05:35:41.581Z,7.1
2018-07-31T05:38:41.560Z,7.6
2018-07-31T05:41:41.411Z,7.2
2018-07-31T05:44:43.073Z,8
2018-07-31T05:47:41.610Z,7.2
2018-07-31T05:50:41.587Z,6.7
2018-07-31T05:53:41.585Z,7
2018-07-31T05:56:41.751Z,7
2018-07-31T05:59:41.456Z,6.6
2018-07-31T06:02:41.581Z,7
2018-07-31T06:05:41.526Z,6.7
2018-07-31T06:08:41.438Z,6.3
2018-07-31T06:11:41.419Z,6.3
2018-07-31T06:14:41.596Z,6.7
2018-07-31T06:17:41.397Z,6.2
2018-07-31T06:20:41.605Z,6.2
2018-07-31T06:23:41.427Z,6.1
2018-07-31T06:26:42.103Z,6
2018-07-31T06:29:41.567Z,5.8
2018-07-31T06:32:41.472Z,5.9
2018-07-31T06:35:41.574Z,5.9
2018-07-31T06:38:41.495Z,6
2018-07-31T06:41:41.577Z,6.1
2018-07-31T06:44:41.455Z,5.8
2018-07-31T06:47:41.614Z,6
2018-07-31T06:50:41.530Z,5.9
2018-07-31T06:53:41.578Z,5.7
2018-07-31T06:56:42.077Z,5.8
2018-07-31T06:59:42.563Z,5.9
2018-07-31T07:02:41.403Z,5.9
2018-07-31T07:05:41.695Z,6
2018-07-31T07:08:41.578Z,5.7
2018-07-31T07:11:41.660Z,5.9
2018-07-31T07:14:41.644Z,5.9
2018-07-31T07:17:41.426Z,5.9
2018-07-31T07:20:41.345Z,5.9
2018-07-31T07:23:41.576Z,5.7
2018-07-31T07:26:41.545Z,5.8
2018-07-31T07:29:41.358Z,5.7
2018-07-31T07:32:41.514Z,5.7
2018-07-31T07:35:41.396Z,5.9
2018-07-31T07:38:41.378Z,5.6
2018-07-31T07:41:41.455Z,5.7
2018-07-31T07:44:41.760Z,5.6
2018-07-31T07:47:41.557Z,5.5
2018-07-31T07:50:41.642Z,5.4
2018-07-31T07:53:41.687Z,5.4
2018-07-31T07:56:41.488Z,5.4
2018-07-31T07:59:41.621Z,5.5
2018-07-31T08:02:41.451Z,5.3
2018-07-31T08:05:41.882Z,5.4
2018-07-31T08:08:41.497Z,5.3
2018-07-31T08:11:41.534Z,5.3
2018-07-31T08:14:41.417Z,5.5
2018-07-31T08:17:41.651Z,6.9
2018-07-31T08:20:41.431Z,6.3
2018-07-31T08:23:41.724Z,6.3
2018-07-31T08:26:41.468Z,5.6
2018-07-31T08:29:41.482Z,5.5
2018-07-31T08:32:41.441Z,5.6
2018-07-31T08:35:41.548Z,5.7
2018-07-31T08:38:41.581Z,5.5
2018-07-31T08:41:41.561Z,5.4
2018-07-31T08:44:41.706Z,5.8
2018-07-31T08:47:41.541Z,5.7
2018-07-31T08:50:41.497Z,5.6
2018-07-31T08:53:41.561Z,5.5
2018-07-31T08:56:41.439Z,5.5
2018-07-31T08:59:41.717Z,5.8
2018-07-31T09:02:42.134Z,5.5
2018-07-31T09:05:41.664Z,5.8
2018-07-31T09:08:43.068Z,5.7
2018-07-31T09:11:41.736Z,5.4
2018-07-31T09:14:41.626Z,5.3
2018-07-31T09:17:41.903Z,5
2018-07-31T09:20:41.840Z,5.7
2018-07-31T09:23:41.510Z,5.4
2018-07-31T09:26:41.853Z,5.2
2018-07-31T09:29:41.563Z,5.3
2018-07-31T09:32:41.543Z,5.1
2018-07-31T09:35:41.454Z,4.9
2018-07-31T09:38:41.617Z,5.5
2018-07-31T09:41:41.511Z,5.2
2018-07-31T09:44:41.683Z,5.1
2018-07-31T09:47:41.624Z,5
2018-07-31T09:50:42.195Z,4.8
2018-07-31T09:53:41.411Z,4.9
2018-07-31T09:56:41.634Z,4.8
2018-07-31T09:59:41.359Z,5.1
2018-07-31T10:02:41.410Z,5.1
2018-07-31T10:05:41.486Z,4.8
2018-07-31T10:08:41.443Z,4.9
2018-07-31T10:11:42.020Z,4.9
2018-07-31T10:14:41.481Z,5.1
2018-07-31T10:17:42.385Z,5
2018-07-31T10:20:41.386Z,5
2018-07-31T10:23:41.482Z,4.8
2018-07-31T10:26:41.329Z,4.8
2018-07-31T10:29:41.401Z,4.9
2018-07-31T10:32:41.523Z,4.9
2018-07-31T10:35:41.464Z,4.9
2018-07-31T10:38:41.517Z,4.8
2018-07-31T10:41:41.484Z,5
2018-07-31T10:44:41.416Z,4.8
2018-07-31T10:47:41.395Z,4.7
2018-07-31T10:50:42.326Z,4.9
2018-07-31T10:53:41.355Z,4.8
2018-07-31T10:56:41.695Z,4.7
2018-07-31T10:59:42.634Z,4.7
2018-07-31T11:02:41.884Z,4.7
2018-07-31T11:05:41.520Z,4.6
2018-07-31T11:08:41.342Z,4.7
2018-07-31T11:11:41.347Z,4.7
2018-07-31T11:14:41.636Z,4.7
2018-07-31T11:17:41.376Z,4.8
2018-07-31T11:20:41.330Z,4.6
2018-07-31T11:23:41.311Z,4.7
2018-07-31T11:26:41.420Z,4.6
2018-07-31T11:29:41.838Z,4.8
2018-07-31T11:32:41.396Z,4.7
2018-07-31T11:35:41.441Z,4.6
2018-07-31T11:38:41.544Z,4.6
2018-07-31T11:41:41.380Z,4.6
2018-07-31T11:44:41.537Z,4.6
2018-07-31T11:47:41.561Z,4.6
2018-07-31T11:50:41.582Z,4.5
2018-07-31T11:53:41.587Z,4.5
2018-07-31T11:56:41.633Z,4.4
2018-07-31T11:59:41.507Z,4.4
2018-07-31T12:02:41.463Z,4.7
2018-07-31T12:05:41.704Z,4.5
2018-07-31T12:08:41.660Z,4.5
2018-07-31T12:11:41.626Z,4.3
2018-07-31T12:14:41.551Z,4.4
2018-07-31T12:17:41.527Z,4.4
2018-07-31T12:20:41.377Z,4.3
2018-07-31T12:23:41.792Z,4.3
2018-07-31T12:26:41.655Z,4.4
2018-07-31T12:29:41.329Z,4.3
2018-07-31T12:32:41.974Z,4.3
2018-07-31T12:35:41.388Z,4.4
2018-07-31T12:38:43.344Z,4.2
2018-07-31T12:41:41.420Z,4.1
2018-07-31T12:44:41.492Z,4.3
2018-07-31T12:47:41.637Z,4.4
2018-07-31T12:50:41.638Z,4.3
2018-07-31T12:53:41.456Z,4.4
2018-07-31T12:56:41.751Z,4.3
2018-07-31T12:59:41.564Z,4.3
2018-07-31T13:02:41.535Z,4.2
2018-07-31T13:05:41.424Z,4.3
2018-07-31T13:08:41.578Z,4.3
2018-07-31T13:11:41.372Z,4.2
2018-07-31T13:14:41.863Z,4.2
2018-07-31T13:17:41.505Z,4.2
2018-07-31T13:20:41.560Z,4.1
2018-07-31T13:23:41.771Z,4.1
2018-07-31T13:26:41.863Z,4.1
2018-07-31T13:29:41.374Z,4.1
2018-07-31T13:32:41.545Z,4.1
2018-07-31T13:35:41.564Z,4
2018-07-31T13:38:41.710Z,4.1
2018-07-31T13:41:41.614Z,4.2
2018-07-31T13:44:41.754Z,4
2018-07-31T13:47:41.489Z,3.9
2018-07-31T13:50:41.410Z,4.1
2018-07-31T13:53:41.634Z,4.1
2018-07-31T13:56:41.639Z,4.1
2018-07-31T13:59:41.717Z,4.2
2018-07-31T14:02:41.633Z,5.8
2018-07-31T14:05:41.462Z,5.1
2018-07-31T14:08:41.549Z,4.7
2018-07-31T14:11:41.364Z,4.3
2018-07-31T14:14:41.564Z,4.5
2018-07-31T14:17:41.403Z,4.3
2018-07-31T14:20:42.385Z,4.3
2018-07-31T14:23:41.748Z,4.3
2018-07-31T14:26:41.456Z,4.4
2018-07-31T14:29:41.579Z,4.9
2018-07-31T14:32:41.408Z,4.7
2018-07-31T14:35:41.550Z,7.2
2018-07-31T14:38:41.982Z,6.9
2018-07-31T14:41:41.504Z,6.7
2018-07-31T14:44:41.576Z,6.3
2018-07-31T14:47:41.333Z,5.7
2018-07-31T14:50:41.464Z,6
2018-07-31T14:53:41.758Z,6.2
2018-07-31T14:56:41.615Z,6.1
2018-07-31T14:59:41.305Z,5.5
2018-07-31T15:02:41.441Z,4.9
2018-07-31T15:05:41.460Z,4.9
2018-07-31T15:08:41.425Z,4.7
2018-07-31T15:11:41.420Z,4.5
2018-07-31T15:14:41.385Z,4.6
2018-07-31T15:17:41.324Z,4.3
2018-07-31T15:20:41.400Z,4.4
2018-07-31T15:23:41.324Z,4.2
2018-07-31T15:26:41.580Z,4.2
2018-07-31T15:29:42.383Z,4.3
2018-07-31T15:32:41.332Z,4.1
2018-07-31T15:35:41.922Z,4.1
2018-07-31T15:38:41.370Z,4.6
2018-07-31T15:41:41.393Z,4.3
2018-07-31T15:44:41.596Z,4.1
2018-07-31T15:47:41.869Z,4.4
2018-07-31T15:50:41.503Z,4.4
2018-07-31T15:53:41.605Z,4.1
2018-07-31T15:56:41.285Z,4.2
2018-07-31T15:59:42.267Z,4
2018-07-31T16:02:41.512Z,4
2018-07-31T16:05:41.609Z,3.8
2018-07-31T16:08:41.470Z,3.9
2018-07-31T16:11:42.155Z,3.9
2018-07-31T16:14:41.435Z,3.8
2018-07-31T16:17:41.316Z,3.8
2018-07-31T16:20:41.443Z,3.9
2018-07-31T16:23:41.726Z,3.9
2018-07-31T16:26:41.391Z,3.9
2018-07-31T16:29:41.442Z,3.7
2018-07-31T16:32:41.411Z,3.7
2018-07-31T16:35:41.482Z,3.8
2018-07-31T16:38:41.489Z,3.7
2018-07-31T16:41:41.323Z,3.8
2018-07-31T16:44:41.346Z,3.7
2018-07-31T16:47:41.432Z,3.6
2018-07-31T16:50:41.222Z,3.6
2018-07-31T16:53:41.274Z,3.7
2018-07-31T16:56:41.455Z,3.9
2018-07-31T16:59:41.421Z,3.7
2018-07-31T17:02:41.390Z,3.7
2018-07-31T17:05:41.608Z,3.9
2018-07-31T17:08:41.592Z,3.8
2018-07-31T17:11:41.466Z,3.7
2018-07-31T17:14:41.418Z,3.7
2018-07-31T17:17:42.574Z,3.6
2018-07-31T17:20:41.481Z,3.6
2018-07-31T17:23:41.445Z,3.6
2018-07-31T17:26:41.523Z,3.6
2018-07-31T17:29:41.406Z,3.6
2018-07-31T17:32:41.427Z,3.6
2018-07-31T17:35:41.247Z,3.6
2018-07-31T17:38:41.685Z,3.6
2018-07-31T17:41:41.410Z,3.6
2018-07-31T17:44:41.391Z,3.5
2018-07-31T17:47:41.331Z,3.5
2018-07-31T17:50:41.268Z,3.4
2018-07-31T17:53:41.422Z,3.5
2018-07-31T17:56:41.544Z,3.5
2018-07-31T17:59:41.282Z,3.4
2018-07-31T18:02:41.257Z,3.5
2018-07-31T18:05:41.510Z,3.5
2018-07-31T18:08:41.241Z,3.4
2018-07-31T18:11:41.639Z,3.4
2018-07-31T18:14:42.272Z,3.4
2018-07-31T18:17:41.408Z,3.8
2018-07-31T18:20:41.452Z,4.3
2018-07-31T18:23:42.981Z,3.8
2018-07-31T18:26:41.464Z,4.5
2018-07-31T18:29:41.393Z,5
2018-07-31T18:32:41.444Z,5
2018-07-31T18:35:41.413Z,5.3
2018-07-31T18:38:41.316Z,4.8
2018-07-31T18:41:41.315Z,5.1
2018-07-31T18:44:41.458Z,4.7
2018-07-31T18:47:41.508Z,4.2
2018-07-31T18:50:42.453Z,5.4
2018-07-31T18:53:41.613Z,6.7
2018-07-31T18:56:41.632Z,8.7
2018-07-31T18:59:41.659Z,7.2
2018-07-31T19:02:41.372Z,7.5
2018-07-31T19:05:41.416Z,7.8
2018-07-31T19:08:41.288Z,5.7
2018-07-31T19:11:41.201Z,4.8
2018-07-31T19:14:41.381Z,4.1
2018-07-31T19:17:41.545Z,5.3
2018-07-31T19:20:41.323Z,5.7
2018-07-31T19:23:41.358Z,5.8
2018-07-31T19:26:41.371Z,7.6
2018-07-31T19:29:41.628Z,7.3
2018-07-31T19:32:41.332Z,8.3
2018-07-31T19:35:41.440Z,8.6
2018-07-31T19:38:41.571Z,10.5
2018-07-31T19:41:41.987Z,9.6
2018-07-31T19:44:41.639Z,9.1
2018-07-31T19:47:41.187Z,8.5
2018-07-31T19:50:41.640Z,9.3
2018-07-31T19:53:41.317Z,8.8
2018-07-31T19:56:41.444Z,8.3
2018-07-31T19:59:41.310Z,7.4
2018-07-31T20:02:41.605Z,6.5
2018-07-31T20:05:41.878Z,6.3
2018-07-31T20:08:41.357Z,6
2018-07-31T20:11:41.845Z,6
2018-07-31T20:14:41.274Z,6.4
2018-07-31T20:17:41.616Z,6
2018-07-31T20:20:41.400Z,6.4
2018-07-31T20:23:41.411Z,7.2
2018-07-31T20:26:41.844Z,7
2018-07-31T20:29:41.246Z,6.3
2018-07-31T20:32:41.446Z,7.3
2018-07-31T20:35:41.414Z,6.5
2018-07-31T20:38:41.186Z,5.2
2018-07-31T20:41:42.211Z,6.1
2018-07-31T20:44:41.399Z,5.4
2018-07-31T20:47:41.382Z,5.7
2018-07-31T20:50:41.365Z,4.7
2018-07-31T20:53:41.383Z,5.1
2018-07-31T20:56:41.439Z,5.8
2018-07-31T20:59:41.658Z,5.9
2018-07-31T21:02:41.651Z,5.1
2018-07-31T21:05:41.807Z,4.9
2018-07-31T21:08:41.543Z,5.6
2018-07-31T21:11:41.284Z,4.7
2018-07-31T21:14:41.440Z,4.2
2018-07-31T21:17:41.562Z,4.4
2018-07-31T21:20:41.371Z,4.8
2018-07-31T21:23:41.872Z,4.3
2018-07-31T21:26:43.308Z,4.3
2018-07-31T21:29:41.891Z,4.5
2018-07-31T21:32:43.304Z,3.9
2018-07-31T21:35:43.075Z,3.7
2018-07-31T21:38:41.964Z,3.4
2018-07-31T21:41:42.123Z,3.4
2018-07-31T21:44:42.013Z,3.7
2018-07-31T21:47:43.340Z,3.9
2018-07-31T21:50:43.447Z,3.7
2018-07-31T21:53:42.115Z,3.3
2018-07-31T21:56:43.230Z,3.2
2018-07-31T21:59:42.932Z,3.1
2018-07-31T22:02:42.120Z,3.4
2018-07-31T22:05:43.249Z,3.3
2018-07-31T22:08:41.859Z,3.9
2018-07-31T22:11:41.951Z,3.4
2018-07-31T22:14:42.142Z,3.2
2018-07-31T22:17:42.019Z,3.2
2018-07-31T22:20:41.378Z,3.1
2018-07-31T22:23:41.333Z,3.1
2018-07-31T22:26:41.266Z,3.4
2018-07-31T22:29:41.442Z,3.3
2018-07-31T22:32:41.199Z,3.2
2018-07-31T22:35:42.075Z,3.2
2018-07-31T22:38:41.232Z,4
2018-07-31T22:41:41.231Z,3.5
2018-07-31T22:44:41.269Z,4.1
2018-07-31T22:47:41.653Z,3.8
2018-07-31T22:50:41.164Z,3.5
2018-07-31T22:53:41.267Z,3.1
2018-07-31T22:56:41.317Z,3.4
2018-07-31T22:59:41.377Z,3.1
2018-07-31T23:02:41.159Z,3.1
2018-07-31T23:05:41.371Z,3.3
2018-07-31T23:08:41.297Z,3.1
2018-07-31T23:11:41.132Z,2.9
2018-07-31T23:14:41.339Z,2.9
2018-07-31T23:17:41.413Z,3
2018-07-31T23:20:41.761Z,2.9
2018-07-31T23:23:41.269Z,2.9
2018-07-31T23:26:43.543Z,2.9
2018-07-31T23:29:41.418Z,3.3
2018-07-31T23:32:41.490Z,3.2
2018-07-31T23:35:41.390Z,2.9
2018-07-31T23:38:41.316Z,3.1
2018-07-31T23:41:41.346Z,3.2
2018-07-31T23:44:41.411Z,3.2
2018-07-31T23:47:41.384Z,3.4
2018-07-31T23:50:42.056Z,3.1
2018-07-31T23:53:41.471Z,3.6
2018-07-31T23:56:41.291Z,3.4
2018-07-31T23:59:41.445Z,3.5
